Messwerte Clayton Lake

Temperatur

Temperatur
°C
1614909600 21.00 21.00 -12.0
1614913200 22.00 22.00 -12.0
1614916800 23.00 23.00 -12.0
1614920400 0.00 0.00 -13.0
1614924000 1.00 1.00
1614927600 2.00 2.00 -14.0
1614931200 3.00 3.00 -14.0
1614934800 4.00 4.00 -15.0
1614938400 5.00 5.00 -16.0
1614942000 6.00 6.00 -17.0
1614945600 7.00 7.00 -17.0
1614949200 8.00 8.00
1614952800 9.00 9.00 -14.0
1614956400 10.00 10.00 -13.0
1614960000 11.00 11.00 -12.0
1614963600 12.00 12.00 -12.0
1614967200 13.00 13.00 -12.0
1614970800 14.00 14.00 -11.0
1614974400 15.00 15.00 -12.0
1614978000 16.00 16.00
1614981600 17.00 17.00 -13.0
1614985200 18.00 18.00 -14.0
1614988800 19.00 19.00 -15.0
1614992400 20.00 20.00 -16.0

Aktuellste Messwerte

Temperatur
-16.0 °C
Feuchtigkeit
71 %
Wind
7 km/h, -
Böen
22 km/h
Luftdruck
1001.0 hPa
Messzeit: 5. März 2021, 21.00Datenquelle: METAR

Weitere Messstationen in der Nähe

Messstation Temperatur Entfernung
La Pocatiere -10 °C 90 km
Beauceville -14 °C 107 km
Cap Tourmente -16 °C 109 km
Charlevoix CS -17 °C 111 km
Presque Isle -14 °C 113 km
Frenchville -14 °C 118 km
Caribou -14 °C 120 km

Wind

Windrichtung Böen Mittelwind
° km/h km/h
1614909600 21.00 20.00 - 21.00 29 11
1614913200 22.00 21.00 - 22.00 29 11
1614916800 23.00 22.00 - 23.00 25 7
1614920400 0.00 23.00 - 0.00 7
1614924000 1.00 0.00 - 1.00
1614927600 2.00 1.00 - 2.00 0
1614931200 3.00 2.00 - 3.00 7
1614934800 4.00 3.00 - 4.00 7
1614938400 5.00 4.00 - 5.00 22 7
1614942000 6.00 5.00 - 6.00 7
1614945600 7.00 6.00 - 7.00 7
1614949200 8.00 7.00 - 8.00
1614952800 9.00 8.00 - 9.00 29 7
1614956400 10.00 9.00 - 10.00 22 7
1614960000 11.00 10.00 - 11.00 29 7
1614963600 12.00 11.00 - 12.00 36 7
1614967200 13.00 12.00 - 13.00 210° 29 14
1614970800 14.00 13.00 - 14.00 230° 29 14
1614974400 15.00 14.00 - 15.00 29 11
1614978000 16.00 15.00 - 16.00
1614981600 17.00 16.00 - 17.00 29 11
1614985200 18.00 17.00 - 18.00 22 7
1614988800 19.00 18.00 - 19.00 22 7
1614992400 20.00 19.00 - 20.00 22 7

Ihre Wetterstation

Fehlt Ihre Wetterstation auf unserem Portal?

Schreiben Sie an network@meteonews.ch

Klima

Wann ist es am wärmsten? Wann regnet es am wenigsten? Unsere Klimadaten geben Auskunft.